createdAt,value
2018-05-16T00:00:00.517Z,21.56
2018-05-16T00:02:28.088Z,21.70
2018-05-16T00:04:55.694Z,21.71
2018-05-16T00:07:23.309Z,21.74
2018-05-16T00:09:50.894Z,21.78
2018-05-16T00:12:18.685Z,21.80
2018-05-16T00:14:46.275Z,21.73
2018-05-16T00:17:13.877Z,21.72
2018-05-16T00:19:41.489Z,21.68
2018-05-16T00:22:09.066Z,21.59
2018-05-16T00:24:36.658Z,21.61
2018-05-16T00:27:04.275Z,21.68
2018-05-16T00:29:31.894Z,21.59
2018-05-16T00:31:59.469Z,21.58
2018-05-16T00:34:27.089Z,21.54
2018-05-16T00:36:54.678Z,21.49
2018-05-16T00:39:22.265Z,21.45
2018-05-16T00:41:49.879Z,21.43
2018-05-16T00:44:17.474Z,21.35
2018-05-16T00:46:45.069Z,21.32
2018-05-16T00:49:12.696Z,21.29
2018-05-16T00:51:40.287Z,21.29
2018-05-16T00:54:07.875Z,21.30
2018-05-16T00:56:35.514Z,21.35
2018-05-16T00:59:03.093Z,21.45
2018-05-16T01:01:30.676Z,21.51
2018-05-16T01:03:58.298Z,21.50
2018-05-16T01:06:25.875Z,21.55
2018-05-16T01:08:53.457Z,21.62
2018-05-16T01:11:21.080Z,21.63
2018-05-16T01:13:50.484Z,21.68
2018-05-16T01:16:18.081Z,21.64
2018-05-16T01:18:45.717Z,21.65
2018-05-16T01:21:13.312Z,21.63
2018-05-16T01:23:40.911Z,21.62
2018-05-16T01:26:08.536Z,21.63
2018-05-16T01:28:36.127Z,21.60
2018-05-16T01:31:03.727Z,21.58
2018-05-16T01:33:31.352Z,21.51
2018-05-16T01:35:58.937Z,21.47
2018-05-16T01:38:27.178Z,21.50
2018-05-16T01:40:55.581Z,21.57
2018-05-16T01:43:23.168Z,21.60
2018-05-16T01:45:50.758Z,21.65
2018-05-16T01:48:18.386Z,21.58
2018-05-16T01:50:45.981Z,21.55
2018-05-16T01:53:13.568Z,21.41
2018-05-16T01:55:41.200Z,21.31
2018-05-16T01:58:08.784Z,21.34
2018-05-16T02:00:36.391Z,21.26
2018-05-16T02:03:04.028Z,21.24
2018-05-16T02:05:31.615Z,21.24
2018-05-16T02:07:59.199Z,21.11
2018-05-16T02:10:26.827Z,20.98
2018-05-16T02:12:54.409Z,20.86
2018-05-16T02:15:22.010Z,20.67
2018-05-16T02:17:49.641Z,20.62
2018-05-16T02:20:17.227Z,20.49
2018-05-16T02:22:44.849Z,20.39
2018-05-16T02:25:12.468Z,20.33
2018-05-16T02:27:40.076Z,20.25
2018-05-16T02:30:07.669Z,20.28
2018-05-16T02:32:35.292Z,20.18
2018-05-16T02:35:02.890Z,20.16
2018-05-16T02:37:30.537Z,20.07
2018-05-16T02:39:58.152Z,19.90
2018-05-16T02:42:25.749Z,19.87
2018-05-16T02:44:53.337Z,19.88
2018-05-16T02:47:20.956Z,19.82
2018-05-16T02:49:48.556Z,19.76
2018-05-16T02:52:16.152Z,19.66
2018-05-16T02:54:43.820Z,19.58
2018-05-16T02:57:11.413Z,19.56
2018-05-16T02:59:39.003Z,19.48
2018-05-16T03:02:06.639Z,19.37
2018-05-16T03:04:34.244Z,19.39
2018-05-16T03:07:01.843Z,19.33
2018-05-16T03:09:29.493Z,19.22
2018-05-16T03:11:57.094Z,19.22
2018-05-16T03:14:24.694Z,19.21
2018-05-16T03:16:52.328Z,19.20
2018-05-16T03:19:19.935Z,19.21
2018-05-16T03:21:47.537Z,19.24
2018-05-16T03:24:15.173Z,19.24
2018-05-16T03:26:42.756Z,19.23
2018-05-16T03:29:10.353Z,19.23
2018-05-16T03:31:37.970Z,19.20
2018-05-16T03:34:05.558Z,19.19
2018-05-16T03:36:33.152Z,19.21
2018-05-16T03:39:00.798Z,19.32
2018-05-16T03:41:28.394Z,19.32
2018-05-16T03:43:55.990Z,19.49
2018-05-16T03:46:23.632Z,19.62
2018-05-16T03:48:51.228Z,19.69
2018-05-16T03:51:18.823Z,19.84
2018-05-16T03:53:46.474Z,20.05
2018-05-16T03:56:14.066Z,20.30
2018-05-16T03:58:53.438Z,20.52
2018-05-16T04:01:32.660Z,20.63
2018-05-16T04:04:11.955Z,20.71
2018-05-16T04:06:39.554Z,20.87
2018-05-16T04:09:07.131Z,21.03
2018-05-16T04:11:34.761Z,20.98
2018-05-16T04:14:02.340Z,21.06
2018-05-16T04:16:29.917Z,21.31
2018-05-16T04:18:57.557Z,21.60
2018-05-16T04:21:25.149Z,21.69
2018-05-16T04:23:52.739Z,21.73
2018-05-16T04:26:20.355Z,22.11
2018-05-16T04:28:47.958Z,23.59
2018-05-16T04:31:15.582Z,23.73
2018-05-16T04:33:43.199Z,23.58
2018-05-16T04:36:10.803Z,23.24
2018-05-16T04:38:38.383Z,22.62
2018-05-16T04:41:06.022Z,22.33
2018-05-16T04:43:33.791Z,21.33
2018-05-16T04:46:01.380Z,21.30
2018-05-16T04:48:29.004Z,20.84
2018-05-16T04:50:56.589Z,20.54
2018-05-16T04:53:24.181Z,20.64
2018-05-16T04:55:51.794Z,20.69
2018-05-16T04:58:19.376Z,20.67
2018-05-16T05:00:46.955Z,20.37
2018-05-16T05:03:14.589Z,20.41
2018-05-16T05:05:42.187Z,20.59
2018-05-16T05:08:09.768Z,20.36
2018-05-16T05:10:37.396Z,20.25
2018-05-16T05:13:04.977Z,20.35
2018-05-16T05:15:32.556Z,20.50
2018-05-16T05:18:00.155Z,20.58
2018-05-16T05:20:27.740Z,20.28
2018-05-16T05:22:55.333Z,20.27
2018-05-16T05:25:22.947Z,20.43
2018-05-16T05:27:50.536Z,20.60
2018-05-16T05:30:18.156Z,20.92
2018-05-16T05:32:45.765Z,21.27
2018-05-16T05:35:13.345Z,21.68
2018-05-16T05:37:40.942Z,22.25
2018-05-16T05:40:08.574Z,23.42
2018-05-16T05:42:36.148Z,25.51
2018-05-16T05:45:03.743Z,26.38
2018-05-16T05:47:31.367Z,27.12
2018-05-16T05:49:58.952Z,28.21
2018-05-16T05:52:26.531Z,29.87
2018-05-16T05:54:54.150Z,31.01
2018-05-16T05:57:21.730Z,32.07
2018-05-16T05:59:49.315Z,32.73
2018-05-16T06:02:16.936Z,33.06
2018-05-16T06:04:44.531Z,33.86
2018-05-16T06:07:12.098Z,34.34
2018-05-16T06:09:39.730Z,34.83
2018-05-16T06:12:07.320Z,33.06
2018-05-16T06:14:34.983Z,33.01
2018-05-16T06:17:02.610Z,34.21
2018-05-16T06:19:30.264Z,34.45
2018-05-16T06:21:57.809Z,32.51
2018-05-16T06:24:25.508Z,33.84
2018-05-16T06:26:53.088Z,34.17
2018-05-16T06:29:20.719Z,34.95
2018-05-16T06:31:48.340Z,35.23
2018-05-16T06:34:15.921Z,35.60
2018-05-16T06:36:43.520Z,36.49
2018-05-16T06:39:11.243Z,35.70
2018-05-16T06:41:38.767Z,36.27
2018-05-16T06:44:06.353Z,36.17
2018-05-16T06:46:33.980Z,34.08
2018-05-16T06:49:01.568Z,32.32
2018-05-16T06:51:29.134Z,30.75
2018-05-16T06:53:56.789Z,30.36
2018-05-16T06:56:24.416Z,30.13
2018-05-16T06:58:51.995Z,30.47
2018-05-16T07:01:19.627Z,30.44
2018-05-16T07:03:47.220Z,30.58
2018-05-16T07:06:14.800Z,32.72
2018-05-16T07:08:42.430Z,33.45
2018-05-16T07:11:10.027Z,33.43
2018-05-16T07:13:37.743Z,34.03
2018-05-16T07:16:05.338Z,33.02
2018-05-16T07:18:32.912Z,33.77
2018-05-16T07:21:00.500Z,33.05
2018-05-16T07:23:28.116Z,31.48
2018-05-16T07:25:55.689Z,30.48
2018-05-16T07:28:23.262Z,30.10
2018-05-16T07:30:50.880Z,29.50
2018-05-16T07:33:18.445Z,29.07
2018-05-16T07:35:46.018Z,28.48
2018-05-16T07:38:13.627Z,28.45
2018-05-16T07:40:41.196Z,28.44
2018-05-16T07:43:08.763Z,28.81
2018-05-16T07:45:36.356Z,29.06
2018-05-16T07:48:03.953Z,29.14
2018-05-16T07:50:31.528Z,29.44
2018-05-16T07:52:59.873Z,28.86
2018-05-16T07:55:27.468Z,28.60
2018-05-16T07:57:55.046Z,27.65
2018-05-16T08:00:22.644Z,26.84
2018-05-16T08:02:50.212Z,27.17
2018-05-16T08:05:17.777Z,27.09
2018-05-16T08:07:45.381Z,26.96
2018-05-16T08:10:12.957Z,27.12
2018-05-16T08:12:40.521Z,27.61
2018-05-16T08:15:08.123Z,27.59
2018-05-16T08:17:35.695Z,27.59
2018-05-16T08:20:03.289Z,27.81
2018-05-16T08:22:30.909Z,28.46
2018-05-16T08:24:58.493Z,30.77
2018-05-16T08:27:26.073Z,32.65
2018-05-16T08:29:53.682Z,34.25
2018-05-16T08:32:21.254Z,35.87
2018-05-16T08:34:48.819Z,36.29
2018-05-16T08:37:16.441Z,36.73
2018-05-16T08:39:44.036Z,35.08
2018-05-16T08:42:11.641Z,33.12
2018-05-16T08:44:39.275Z,32.34
2018-05-16T08:47:06.844Z,31.30
2018-05-16T08:49:34.439Z,32.79
2018-05-16T08:52:02.063Z,33.65
2018-05-16T08:54:29.646Z,34.59
2018-05-16T08:56:57.235Z,34.66
2018-05-16T08:59:24.867Z,34.69
2018-05-16T09:01:52.454Z,32.66
2018-05-16T09:04:20.029Z,33.73
2018-05-16T09:06:47.645Z,33.02
2018-05-16T09:09:15.225Z,33.90
2018-05-16T09:11:42.800Z,33.92
2018-05-16T09:14:10.406Z,33.69
2018-05-16T09:16:37.972Z,34.38
2018-05-16T09:19:05.547Z,33.72
2018-05-16T09:21:33.173Z,33.50
2018-05-16T09:24:00.760Z,33.46
2018-05-16T09:26:28.339Z,33.91
2018-05-16T09:28:55.954Z,33.76
2018-05-16T09:31:23.557Z,34.16
2018-05-16T09:33:51.175Z,34.40
2018-05-16T09:36:18.798Z,36.15
2018-05-16T09:38:46.419Z,34.95
2018-05-16T09:41:14.009Z,34.77
2018-05-16T09:43:41.680Z,35.57
2018-05-16T09:46:09.253Z,36.29
2018-05-16T09:48:36.877Z,36.72
2018-05-16T09:51:04.511Z,35.17
2018-05-16T09:53:32.100Z,33.79
2018-05-16T09:55:59.705Z,33.29
2018-05-16T09:58:27.487Z,32.26
2018-05-16T10:00:55.065Z,32.06
2018-05-16T10:03:22.642Z,31.43
2018-05-16T10:05:50.264Z,30.76
2018-05-16T10:08:17.847Z,29.56
2018-05-16T10:10:45.429Z,29.52
2018-05-16T10:13:13.038Z,29.29
2018-05-16T10:15:40.642Z,29.18
2018-05-16T10:18:08.227Z,28.08
2018-05-16T10:20:35.914Z,28.52
2018-05-16T10:23:03.486Z,30.18
2018-05-16T10:25:31.088Z,30.92
2018-05-16T10:27:58.728Z,30.35
2018-05-16T10:30:26.304Z,30.16
2018-05-16T10:32:53.868Z,30.12
2018-05-16T10:35:21.468Z,31.35
2018-05-16T10:37:49.023Z,32.37
2018-05-16T10:40:16.595Z,33.21
2018-05-16T10:42:44.227Z,32.71
2018-05-16T10:45:11.797Z,34.04
2018-05-16T10:47:39.359Z,35.39
2018-05-16T10:50:06.967Z,34.31
2018-05-16T10:52:34.526Z,35.28
2018-05-16T10:55:02.116Z,35.44
2018-05-16T10:57:29.836Z,35.52
2018-05-16T10:59:57.511Z,34.99
2018-05-16T11:02:25.105Z,34.79
2018-05-16T11:04:52.705Z,35.07
2018-05-16T11:07:20.267Z,33.88
2018-05-16T11:09:47.820Z,34.62
2018-05-16T11:12:15.426Z,34.36
2018-05-16T11:14:43.011Z,33.96
2018-05-16T11:17:10.583Z,35.56
2018-05-16T11:19:38.205Z,34.97
2018-05-16T11:22:05.772Z,34.77
2018-05-16T11:24:33.377Z,34.46
2018-05-16T11:27:00.990Z,33.38
2018-05-16T11:29:28.546Z,32.56
2018-05-16T11:31:56.117Z,31.62
2018-05-16T11:34:23.732Z,30.47
2018-05-16T11:36:51.335Z,28.74
2018-05-16T11:39:18.908Z,28.41
2018-05-16T11:41:46.501Z,28.28
2018-05-16T11:44:14.083Z,28.64
2018-05-16T11:46:41.653Z,28.78
2018-05-16T11:49:09.247Z,28.88
2018-05-16T11:51:36.822Z,29.40
2018-05-16T11:54:04.376Z,29.74
2018-05-16T11:56:31.967Z,30.09
2018-05-16T11:58:59.539Z,29.84
2018-05-16T12:01:27.094Z,29.64
2018-05-16T12:03:54.780Z,31.21
2018-05-16T12:06:22.345Z,32.60
2018-05-16T12:08:49.927Z,32.47
2018-05-16T12:11:17.535Z,31.77
2018-05-16T12:13:45.090Z,31.90
2018-05-16T12:16:12.705Z,30.44
2018-05-16T12:18:40.302Z,30.45
2018-05-16T12:21:07.869Z,30.09
2018-05-16T12:23:35.429Z,29.26
2018-05-16T12:26:03.020Z,29.45
2018-05-16T12:28:30.594Z,29.39
2018-05-16T12:30:58.180Z,29.67
2018-05-16T12:33:25.776Z,30.84
2018-05-16T12:35:53.350Z,31.80
2018-05-16T12:38:20.926Z,31.74
2018-05-16T12:40:48.529Z,32.21
2018-05-16T12:43:18.113Z,31.78
2018-05-16T12:45:45.736Z,30.59
2018-05-16T12:48:13.356Z,29.14
2018-05-16T12:50:40.915Z,29.53
2018-05-16T12:53:08.488Z,29.40
2018-05-16T12:55:36.095Z,29.41
2018-05-16T12:58:03.665Z,29.58
2018-05-16T13:00:31.264Z,29.41
2018-05-16T13:02:58.881Z,29.40
2018-05-16T13:05:26.466Z,29.19
2018-05-16T13:07:54.053Z,28.46
2018-05-16T13:10:21.682Z,28.68
2018-05-16T13:12:49.273Z,28.80
2018-05-16T13:15:16.877Z,28.86
2018-05-16T13:17:44.582Z,28.64
2018-05-16T13:20:12.147Z,27.93
2018-05-16T13:22:39.710Z,27.92
2018-05-16T13:25:07.344Z,27.60
2018-05-16T13:27:34.924Z,27.42
2018-05-16T13:30:02.487Z,27.05
2018-05-16T13:32:30.096Z,27.09
2018-05-16T13:34:57.665Z,26.84
2018-05-16T13:37:25.517Z,26.87
2018-05-16T13:39:53.130Z,26.60
2018-05-16T13:42:20.721Z,26.88
2018-05-16T13:44:48.294Z,27.15
2018-05-16T13:47:15.893Z,27.43
2018-05-16T13:49:43.455Z,27.80
2018-05-16T13:52:11.097Z,27.99
2018-05-16T13:54:38.802Z,27.96
2018-05-16T13:57:06.441Z,27.89
2018-05-16T13:59:34.028Z,27.85
2018-05-16T14:02:01.648Z,27.58
2018-05-16T14:04:29.223Z,27.78
2018-05-16T14:06:56.800Z,27.91
2018-05-16T14:09:24.400Z,27.85
2018-05-16T14:11:52.029Z,28.16
2018-05-16T14:14:19.612Z,27.97
2018-05-16T14:16:47.221Z,27.67
2018-05-16T14:19:14.807Z,27.81
2018-05-16T14:21:43.246Z,27.88
2018-05-16T14:24:11.795Z,27.76
2018-05-16T14:26:40.000Z,28.00
2018-05-16T14:29:07.755Z,27.83
2018-05-16T14:31:35.357Z,27.92
2018-05-16T14:34:02.924Z,28.06
2018-05-16T14:36:30.514Z,28.04
2018-05-16T14:38:58.153Z,27.98
2018-05-16T14:41:25.733Z,27.50
2018-05-16T14:43:53.333Z,27.45
2018-05-16T14:46:20.945Z,27.50
2018-05-16T14:48:48.528Z,27.19
2018-05-16T14:51:16.085Z,27.35
2018-05-16T14:53:43.698Z,27.65
2018-05-16T14:56:11.617Z,27.56
2018-05-16T14:58:39.180Z,27.58
2018-05-16T15:01:06.787Z,27.29
2018-05-16T15:03:34.356Z,26.85
2018-05-16T15:06:01.941Z,27.00
2018-05-16T15:08:29.549Z,26.87
2018-05-16T15:10:57.132Z,27.00
2018-05-16T15:13:24.713Z,27.02
2018-05-16T15:15:52.322Z,26.98
2018-05-16T15:18:19.899Z,27.10
2018-05-16T15:20:47.583Z,27.11
2018-05-16T15:23:15.212Z,27.14
2018-05-16T15:25:42.785Z,27.21
2018-05-16T15:28:10.369Z,27.24
2018-05-16T15:30:37.976Z,27.17
2018-05-16T15:33:05.622Z,27.08
2018-05-16T15:35:33.185Z,27.19
2018-05-16T15:38:00.792Z,27.24
2018-05-16T15:40:28.376Z,27.23
2018-05-16T15:42:55.998Z,27.07
2018-05-16T15:45:23.627Z,27.07
2018-05-16T15:47:51.202Z,26.72
2018-05-16T15:50:18.770Z,26.56
2018-05-16T15:52:46.361Z,26.42
2018-05-16T15:55:13.926Z,26.20
2018-05-16T15:57:41.503Z,26.04
2018-05-16T16:00:09.136Z,25.98
2018-05-16T16:02:36.710Z,25.85
2018-05-16T16:05:04.290Z,25.76
2018-05-16T16:07:31.896Z,25.72
2018-05-16T16:09:59.473Z,25.76
2018-05-16T16:12:27.056Z,25.77
2018-05-16T16:14:54.742Z,25.64
2018-05-16T16:17:22.322Z,25.58
2018-05-16T16:19:49.892Z,25.48
2018-05-16T16:22:17.516Z,25.37
2018-05-16T16:24:45.114Z,25.23
2018-05-16T16:27:12.723Z,25.13
2018-05-16T16:29:40.771Z,25.04
2018-05-16T16:32:08.455Z,25.03
2018-05-16T16:34:36.550Z,24.88
2018-05-16T16:37:04.883Z,24.81
2018-05-16T16:39:32.471Z,24.74
2018-05-16T16:42:00.998Z,24.63
2018-05-16T16:44:28.617Z,24.57
2018-05-16T16:46:56.182Z,24.52
2018-05-16T16:49:23.760Z,24.52
2018-05-16T16:51:51.398Z,24.51
2018-05-16T16:54:18.988Z,24.53
2018-05-16T16:56:46.627Z,24.54
2018-05-16T16:59:14.244Z,24.43
2018-05-16T17:01:42.121Z,24.52
2018-05-16T17:04:09.718Z,24.49
2018-05-16T17:06:37.337Z,24.36
2018-05-16T17:09:05.115Z,24.39
2018-05-16T17:11:32.685Z,24.29
2018-05-16T17:14:00.333Z,24.28
2018-05-16T17:16:27.948Z,24.32
2018-05-16T17:18:55.528Z,24.30
2018-05-16T17:21:23.143Z,24.22
2018-05-16T17:23:50.711Z,24.24
2018-05-16T17:26:18.307Z,24.19
2018-05-16T17:28:45.919Z,24.01
2018-05-16T17:31:13.477Z,23.94
2018-05-16T17:33:41.066Z,23.88
2018-05-16T17:36:08.666Z,23.80
2018-05-16T17:38:38.651Z,23.75
2018-05-16T17:41:06.228Z,23.68
2018-05-16T17:43:33.855Z,23.63
2018-05-16T17:46:01.511Z,23.50
2018-05-16T17:48:29.103Z,23.42
2018-05-16T17:50:56.706Z,23.38
2018-05-16T17:53:24.304Z,23.28
2018-05-16T17:55:51.872Z,23.24
2018-05-16T17:58:19.464Z,23.21
2018-05-16T18:00:47.096Z,23.18
2018-05-16T18:03:14.623Z,23.13
2018-05-16T18:05:42.557Z,23.18
2018-05-16T18:08:10.133Z,23.05
2018-05-16T18:10:37.729Z,22.95
2018-05-16T18:16:28.391Z,22.85
2018-05-16T18:18:55.976Z,22.80
2018-05-16T18:21:23.551Z,22.75
2018-05-16T18:23:51.141Z,22.72
2018-05-16T18:26:18.730Z,22.57
2018-05-16T18:28:46.312Z,22.57
2018-05-16T18:31:13.884Z,22.56
2018-05-16T18:33:41.489Z,22.57
2018-05-16T18:36:09.111Z,22.48
2018-05-16T18:38:36.668Z,22.40
2018-05-16T18:41:04.249Z,22.27
2018-05-16T18:43:31.817Z,22.15
2018-05-16T18:45:59.397Z,22.00
2018-05-16T18:48:27.016Z,21.84
2018-05-16T18:50:54.588Z,21.72
2018-05-16T18:53:22.149Z,21.63
2018-05-16T18:55:49.819Z,21.56
2018-05-16T18:58:17.392Z,21.53
2018-05-16T19:00:44.995Z,21.39
2018-05-16T19:03:12.589Z,21.31
2018-05-16T19:05:40.194Z,21.37
2018-05-16T19:08:07.774Z,21.39
2018-05-16T19:10:35.372Z,21.47
2018-05-16T19:13:02.949Z,21.48
2018-05-16T19:15:30.534Z,21.55
2018-05-16T19:17:58.153Z,21.57
2018-05-16T19:20:25.754Z,21.65
2018-05-16T19:22:53.323Z,21.67
2018-05-16T19:25:21.551Z,21.73
2018-05-16T19:27:49.136Z,21.72
2018-05-16T19:30:16.704Z,21.68
2018-05-16T19:32:44.301Z,21.66
2018-05-16T19:35:11.860Z,21.60
2018-05-16T19:37:39.466Z,21.58
2018-05-16T19:40:07.389Z,21.55
2018-05-16T19:42:34.969Z,21.48
2018-05-16T19:45:02.534Z,21.41
2018-05-16T19:47:30.156Z,21.30
2018-05-16T19:49:57.748Z,21.15
2018-05-16T19:52:25.314Z,21.12
2018-05-16T19:54:52.949Z,21.18
2018-05-16T19:57:20.531Z,21.24
2018-05-16T19:59:48.101Z,21.23
2018-05-16T20:02:15.706Z,21.27
2018-05-16T20:04:43.307Z,21.27
2018-05-16T20:07:10.892Z,21.19
2018-05-16T20:09:39.705Z,21.22
2018-05-16T20:12:07.294Z,21.18
2018-05-16T20:14:34.981Z,21.17
2018-05-16T20:17:02.553Z,21.10
2018-05-16T20:19:30.139Z,21.13
2018-05-16T20:21:57.742Z,21.12
2018-05-16T20:24:25.353Z,21.12
2018-05-16T20:26:52.947Z,21.12
2018-05-16T20:29:20.551Z,21.15
2018-05-16T20:31:48.186Z,21.20
2018-05-16T20:34:16.392Z,21.14
2018-05-16T20:36:44.053Z,21.14
2018-05-16T20:39:11.662Z,21.11
2018-05-16T20:41:39.258Z,21.14
2018-05-16T20:44:06.840Z,21.20
2018-05-16T20:46:34.446Z,21.21
2018-05-16T20:49:02.028Z,21.02
2018-05-16T20:51:29.615Z,21.10
2018-05-16T20:53:57.241Z,21.09
2018-05-16T20:56:24.818Z,21.04
2018-05-16T20:58:52.429Z,21.04
2018-05-16T21:01:20.062Z,20.95
2018-05-16T21:03:47.634Z,20.95
2018-05-16T21:06:15.204Z,20.99
2018-05-16T21:08:42.805Z,21.00
2018-05-16T21:11:10.394Z,21.01
2018-05-16T21:13:37.980Z,20.95
2018-05-16T21:16:05.597Z,20.94
2018-05-16T21:18:33.174Z,20.86
2018-05-16T21:21:00.754Z,20.81
2018-05-16T21:23:28.353Z,20.79
2018-05-16T21:25:55.941Z,20.72
2018-05-16T21:28:23.524Z,20.65
2018-05-16T21:30:51.149Z,20.62
2018-05-16T21:33:18.722Z,20.54
2018-05-16T21:35:46.312Z,20.42
2018-05-16T21:38:13.914Z,20.26
2018-05-16T21:40:41.499Z,20.14
2018-05-16T21:43:15.040Z,19.99
2018-05-16T21:45:42.619Z,19.91
2018-05-16T21:48:10.205Z,19.90
2018-05-16T21:50:38.793Z,19.74
2018-05-16T21:53:06.383Z,19.51
2018-05-16T21:55:33.983Z,19.44
2018-05-16T21:58:01.609Z,19.28
2018-05-16T22:00:30.128Z,19.13
2018-05-16T22:02:57.711Z,19.07
2018-05-16T22:05:25.325Z,18.94
2018-05-16T22:07:52.920Z,18.83
2018-05-16T22:10:20.522Z,18.69
2018-05-16T22:12:48.166Z,18.66
2018-05-16T22:15:15.756Z,18.63
2018-05-16T22:17:43.342Z,18.59
2018-05-16T22:20:11.402Z,18.58
2018-05-16T22:22:39.018Z,18.58
2018-05-16T22:25:06.638Z,18.54
2018-05-16T22:27:34.450Z,18.54
2018-05-16T22:30:01.480Z,18.55
2018-05-16T22:32:35.651Z,18.44
2018-05-16T22:35:08.633Z,18.32
2018-05-16T22:37:41.827Z,18.28
2018-05-16T22:40:14.816Z,18.22
2018-05-16T22:42:41.837Z,18.12
2018-05-16T22:45:09.455Z,17.95
2018-05-16T22:47:37.024Z,17.81
2018-05-16T22:50:04.628Z,17.81
2018-05-16T22:52:32.198Z,17.78
2018-05-16T22:54:59.790Z,17.75
2018-05-16T22:57:27.457Z,17.67
2018-05-16T22:59:55.057Z,17.65
2018-05-16T23:02:22.642Z,17.64
2018-05-16T23:04:50.381Z,17.59
2018-05-16T23:07:17.961Z,17.54
2018-05-16T23:09:45.612Z,17.48
2018-05-16T23:12:13.225Z,17.47
2018-05-16T23:14:40.806Z,17.42
2018-05-16T23:17:08.390Z,17.33
2018-05-16T23:19:36.004Z,17.26
2018-05-16T23:22:03.945Z,17.25
2018-05-16T23:24:32.946Z,17.19
2018-05-16T23:27:00.560Z,17.15
2018-05-16T23:29:28.128Z,17.11
2018-05-16T23:31:55.704Z,17.08
2018-05-16T23:34:25.183Z,17.05
2018-05-16T23:36:53.487Z,17.06
2018-05-16T23:39:21.067Z,17.04
2018-05-16T23:41:48.689Z,16.97
2018-05-16T23:44:16.261Z,16.91
2018-05-16T23:46:43.868Z,16.86
2018-05-16T23:49:11.494Z,16.80
2018-05-16T23:51:39.094Z,16.82
2018-05-16T23:54:06.701Z,16.82
2018-05-16T23:56:34.310Z,16.79
2018-05-16T23:59:02.334Z,16.72
